< < Back
Terminal Aerodrome Forecast


Current Version              Previous Versions:   1  2  3  4  5  6  7  8  9  

Terminal Aerodrome Forecast

547
FTUS42 KJAX 181700
TAFSSI
TAF
KSSI 181721Z 1818/1918 04015G25KT 2SM RA BR OVC005
     FM182300 08016G26KT 2SM RA BR OVC006
     FM190300 14015G25KT 2SM RA BR BKN005=

Latest METAR

733
SAUS70 KWBC 181800 RRF
MTRSSI
METAR KSSI 181753Z AUTO 04015G28KT 3/4SM +RA BR OVC007 17/17 A3006 RMK
AO2 PK WND 04029/1742 SLP180 P0034 60036 T01720167 10183
20172 56016


USA.gov is the U.S. government's official web portal to all federal, state and local government web resources and services.